sensor_id;sensor_type;location;lat;lon;timestamp;temperature;humidity
59961;DHT22;55902;-37.980;-63.602;2023-06-04T00:01:57;11.60;99.90
59961;DHT22;55902;-37.980;-63.602;2023-06-04T00:04:27;11.60;99.90
59961;DHT22;55902;-37.980;-63.602;2023-06-04T00:06:54;11.60;99.90
59961;DHT22;55902;-37.980;-63.602;2023-06-04T00:09:22;11.70;99.90
59961;DHT22;55902;-37.980;-63.602;2023-06-04T00:11:49;11.70;99.90
59961;DHT22;55902;-37.980;-63.602;2023-06-04T00:14:16;11.80;99.90
59961;DHT22;55902;-37.980;-63.602;2023-06-04T00:16:43;11.80;99.90
59961;DHT22;55902;-37.980;-63.602;2023-06-04T00:19:10;11.90;99.90
59961;DHT22;55902;-37.980;-63.602;2023-06-04T00:21:37;11.90;99.90
59961;DHT22;55902;-37.980;-63.602;2023-06-04T00:24:04;12.00;99.90
59961;DHT22;55902;-37.980;-63.602;2023-06-04T00:26:31;12.00;99.90
59961;DHT22;55902;-37.980;-63.602;2023-06-04T00:28:58;12.10;99.90
59961;DHT22;55902;-37.980;-63.602;2023-06-04T00:31:25;12.40;99.90
59961;DHT22;55902;-37.980;-63.602;2023-06-04T00:33:53;12.70;99.90
59961;DHT22;55902;-37.980;-63.602;2023-06-04T00:36:22;13.00;99.90
59961;DHT22;55902;-37.980;-63.602;2023-06-04T00:38:54;13.20;99.90
59961;DHT22;55902;-37.980;-63.602;2023-06-04T00:41:21;13.40;99.90
59961;DHT22;55902;-37.980;-63.602;2023-06-04T00:43:48;13.50;99.90
59961;DHT22;55902;-37.980;-63.602;2023-06-04T00:46:28;13.60;99.90
59961;DHT22;55902;-37.980;-63.602;2023-06-04T00:49:00;13.70;99.90
59961;DHT22;55902;-37.980;-63.602;2023-06-04T00:51:31;13.80;99.90
59961;DHT22;55902;-37.980;-63.602;2023-06-04T00:54:00;13.80;99.90
59961;DHT22;55902;-37.980;-63.602;2023-06-04T00:56:38;13.80;99.90
59961;DHT22;55902;-37.980;-63.602;2023-06-04T00:59:09;13.90;99.90
59961;DHT22;55902;-37.980;-63.602;2023-06-04T01:02:02;13.90;99.90
59961;DHT22;55902;-37.980;-63.602;2023-06-04T01:05:05;13.90;99.90
59961;DHT22;55902;-37.980;-63.602;2023-06-04T01:07:30;14.00;99.90
59961;DHT22;55902;-37.980;-63.602;2023-06-04T01:09:57;14.00;99.90
59961;DHT22;55902;-37.980;-63.602;2023-06-04T01:12:24;14.10;99.90
59961;DHT22;55902;-37.980;-63.602;2023-06-04T01:14:51;14.10;99.90
59961;DHT22;55902;-37.980;-63.602;2023-06-04T01:19:56;14.10;99.90
59961;DHT22;55902;-37.980;-63.602;2023-06-04T01:25:12;14.10;99.90
59961;DHT22;55902;-37.980;-63.602;2023-06-04T01:27:54;14.10;99.90
59961;DHT22;55902;-37.980;-63.602;2023-06-04T01:30:35;14.10;99.90
59961;DHT22;55902;-37.980;-63.602;2023-06-04T01:33:10;14.10;99.90
59961;DHT22;55902;-37.980;-63.602;2023-06-04T01:35:37;14.10;99.90
59961;DHT22;55902;-37.980;-63.602;2023-06-04T01:38:05;14.10;99.90
59961;DHT22;55902;-37.980;-63.602;2023-06-04T01:40:32;14.10;99.90
59961;DHT22;55902;-37.980;-63.602;2023-06-04T01:42:59;14.00;99.90
59961;DHT22;55902;-37.980;-63.602;2023-06-04T01:45:27;14.00;99.90
59961;DHT22;55902;-37.980;-63.602;2023-06-04T01:47:55;13.90;99.90
59961;DHT22;55902;-37.980;-63.602;2023-06-04T02:00:52;13.50;99.90
59961;DHT22;55902;-37.980;-63.602;2023-06-04T02:03:21;13.50;99.90
59961;DHT22;55902;-37.980;-63.602;2023-06-04T02:05:49;13.40;99.90
59961;DHT22;55902;-37.980;-63.602;2023-06-04T02:08:16;13.40;99.90
59961;DHT22;55902;-37.980;-63.602;2023-06-04T02:10:47;13.30;99.90
59961;DHT22;55902;-37.980;-63.602;2023-06-04T02:13:15;13.30;99.90
59961;DHT22;55902;-37.980;-63.602;2023-06-04T02:15:42;13.30;99.90
59961;DHT22;55902;-37.980;-63.602;2023-06-04T02:18:20;13.20;99.90
59961;DHT22;55902;-37.980;-63.602;2023-06-04T02:20:49;13.10;99.90
59961;DHT22;55902;-37.980;-63.602;2023-06-04T02:23:18;13.00;99.90
59961;DHT22;55902;-37.980;-63.602;2023-06-04T02:25:45;12.80;99.90
59961;DHT22;55902;-37.980;-63.602;2023-06-04T02:28:16;12.70;99.90
59961;DHT22;55902;-37.980;-63.602;2023-06-04T02:30:44;12.70;99.90
59961;DHT22;55902;-37.980;-63.602;2023-06-04T02:33:15;12.60;99.90
59961;DHT22;55902;-37.980;-63.602;2023-06-04T02:35:42;12.50;99.90
59961;DHT22;55902;-37.980;-63.602;2023-06-04T02:38:09;12.50;99.90
59961;DHT22;55902;-37.980;-63.602;2023-06-04T02:40:36;12.40;99.90
59961;DHT22;55902;-37.980;-63.602;2023-06-04T02:43:03;12.30;99.90
59961;DHT22;55902;-37.980;-63.602;2023-06-04T02:45:30;12.30;99.90
59961;DHT22;55902;-37.980;-63.602;2023-06-04T02:47:58;12.20;99.90
59961;DHT22;55902;-37.980;-63.602;2023-06-04T02:50:27;12.20;99.90
59961;DHT22;55902;-37.980;-63.602;2023-06-04T02:52:54;12.10;99.90
59961;DHT22;55902;-37.980;-63.602;2023-06-04T02:55:21;12.10;99.90
59961;DHT22;55902;-37.980;-63.602;2023-06-04T02:57:48;12.10;99.90
59961;DHT22;55902;-37.980;-63.602;2023-06-04T03:00:18;12.10;99.90
59961;DHT22;55902;-37.980;-63.602;2023-06-04T03:02:46;12.00;99.90
59961;DHT22;55902;-37.980;-63.602;2023-06-04T03:05:15;12.00;99.90
59961;DHT22;55902;-37.980;-63.602;2023-06-04T03:07:44;12.00;99.90
59961;DHT22;55902;-37.980;-63.602;2023-06-04T03:10:13;12.00;99.90
59961;DHT22;55902;-37.980;-63.602;2023-06-04T03:12:41;12.00;99.90
59961;DHT22;55902;-37.980;-63.602;2023-06-04T03:15:08;12.00;99.90
59961;DHT22;55902;-37.980;-63.602;2023-06-04T03:17:36;12.00;99.90
59961;DHT22;55902;-37.980;-63.602;2023-06-04T03:20:04;12.00;99.90
59961;DHT22;55902;-37.980;-63.602;2023-06-04T03:22:31;12.00;99.90
59961;DHT22;55902;-37.980;-63.602;2023-06-04T03:25:00;12.00;99.90
59961;DHT22;55902;-37.980;-63.602;2023-06-04T03:27:27;12.00;99.90
59961;DHT22;55902;-37.980;-63.602;2023-06-04T03:29:54;11.90;99.90
59961;DHT22;55902;-37.980;-63.602;2023-06-04T03:32:21;11.90;99.90
59961;DHT22;55902;-37.980;-63.602;2023-06-04T03:34:48;12.00;99.90
59961;DHT22;55902;-37.980;-63.602;2023-06-04T03:37:16;12.00;99.90
59961;DHT22;55902;-37.980;-63.602;2023-06-04T03:39:43;11.90;99.90
59961;DHT22;55902;-37.980;-63.602;2023-06-04T03:52:16;12.00;99.90
59961;DHT22;55902;-37.980;-63.602;2023-06-04T03:54:43;12.00;99.90
59961;DHT22;55902;-37.980;-63.602;2023-06-04T03:57:10;12.00;99.90
59961;DHT22;55902;-37.980;-63.602;2023-06-04T03:59:37;12.00;99.90
59961;DHT22;55902;-37.980;-63.602;2023-06-04T04:02:04;12.00;99.90
59961;DHT22;55902;-37.980;-63.602;2023-06-04T04:04:32;12.00;99.90
59961;DHT22;55902;-37.980;-63.602;2023-06-04T04:07:02;12.00;99.90
59961;DHT22;55902;-37.980;-63.602;2023-06-04T04:09:29;12.00;99.90
59961;DHT22;55902;-37.980;-63.602;2023-06-04T04:22:02;11.90;99.90
59961;DHT22;55902;-37.980;-63.602;2023-06-04T04:24:29;11.80;99.90
59961;DHT22;55902;-37.980;-63.602;2023-06-04T04:26:57;11.70;99.90
59961;DHT22;55902;-37.980;-63.602;2023-06-04T04:29:24;11.70;99.90
59961;DHT22;55902;-37.980;-63.602;2023-06-04T04:31:52;11.60;99.90
59961;DHT22;55902;-37.980;-63.602;2023-06-04T04:34:19;11.50;99.90
59961;DHT22;55902;-37.980;-63.602;2023-06-04T04:36:47;11.50;99.90
59961;DHT22;55902;-37.980;-63.602;2023-06-04T04:39:22;11.50;99.90
59961;DHT22;55902;-37.980;-63.602;2023-06-04T04:41:50;11.40;99.90
59961;DHT22;55902;-37.980;-63.602;2023-06-04T04:44:18;11.30;99.90
59961;DHT22;55902;-37.980;-63.602;2023-06-04T04:46:45;11.20;99.90
59961;DHT22;55902;-37.980;-63.602;2023-06-04T04:49:12;11.10;99.90
59961;DHT22;55902;-37.980;-63.602;2023-06-04T04:51:39;11.00;99.90
59961;DHT22;55902;-37.980;-63.602;2023-06-04T04:54:06;11.00;99.90
59961;DHT22;55902;-37.980;-63.602;2023-06-04T04:56:36;10.90;99.90
59961;DHT22;55902;-37.980;-63.602;2023-06-04T04:59:03;10.80;99.90
59961;DHT22;55902;-37.980;-63.602;2023-06-04T05:01:30;10.70;99.90
59961;DHT22;55902;-37.980;-63.602;2023-06-04T05:03:57;10.60;99.90
59961;DHT22;55902;-37.980;-63.602;2023-06-04T05:06:24;10.50;99.90
59961;DHT22;55902;-37.980;-63.602;2023-06-04T05:08:51;10.50;99.90
59961;DHT22;55902;-37.980;-63.602;2023-06-04T05:11:18;10.40;99.90
59961;DHT22;55902;-37.980;-63.602;2023-06-04T05:13:46;10.40;99.90
59961;DHT22;55902;-37.980;-63.602;2023-06-04T05:16:13;10.30;99.90
59961;DHT22;55902;-37.980;-63.602;2023-06-04T05:18:41;10.20;99.90
59961;DHT22;55902;-37.980;-63.602;2023-06-04T05:21:10;10.20;99.90
59961;DHT22;55902;-37.980;-63.602;2023-06-04T05:23:41;10.20;99.90
59961;DHT22;55902;-37.980;-63.602;2023-06-04T05:26:08;10.10;99.90
59961;DHT22;55902;-37.980;-63.602;2023-06-04T05:28:35;10.10;99.90
59961;DHT22;55902;-37.980;-63.602;2023-06-04T05:31:02;10.00;99.90
59961;DHT22;55902;-37.980;-63.602;2023-06-04T05:33:31;10.00;99.90
59961;DHT22;55902;-37.980;-63.602;2023-06-04T05:35:58;9.90;99.90
59961;DHT22;55902;-37.980;-63.602;2023-06-04T05:38:25;9.90;99.90
59961;DHT22;55902;-37.980;-63.602;2023-06-04T05:40:56;9.80;99.90
59961;DHT22;55902;-37.980;-63.602;2023-06-04T05:43:23;9.80;99.90
59961;DHT22;55902;-37.980;-63.602;2023-06-04T05:45:50;9.80;99.90
59961;DHT22;55902;-37.980;-63.602;2023-06-04T05:48:20;9.70;99.90
59961;DHT22;55902;-37.980;-63.602;2023-06-04T05:50:47;9.70;99.90
59961;DHT22;55902;-37.980;-63.602;2023-06-04T05:53:14;9.70;99.90
59961;DHT22;55902;-37.980;-63.602;2023-06-04T05:55:42;9.60;99.90
59961;DHT22;55902;-37.980;-63.602;2023-06-04T05:58:09;9.70;99.90
59961;DHT22;55902;-37.980;-63.602;2023-06-04T06:00:36;9.60;99.90
59961;DHT22;55902;-37.980;-63.602;2023-06-04T06:03:03;9.50;99.90
59961;DHT22;55902;-37.980;-63.602;2023-06-04T06:05:32;9.50;99.90
59961;DHT22;55902;-37.980;-63.602;2023-06-04T06:07:59;9.40;99.90
59961;DHT22;55902;-37.980;-63.602;2023-06-04T06:10:26;9.40;99.90
59961;DHT22;55902;-37.980;-63.602;2023-06-04T06:12:53;9.40;99.90
59961;DHT22;55902;-37.980;-63.602;2023-06-04T06:15:20;9.40;99.90
59961;DHT22;55902;-37.980;-63.602;2023-06-04T06:17:47;9.30;99.90
59961;DHT22;55902;-37.980;-63.602;2023-06-04T06:20:14;9.30;99.90
59961;DHT22;55902;-37.980;-63.602;2023-06-04T06:22:44;9.30;99.90
59961;DHT22;55902;-37.980;-63.602;2023-06-04T06:25:11;9.20;99.90
59961;DHT22;55902;-37.980;-63.602;2023-06-04T06:27:42;9.20;99.90
59961;DHT22;55902;-37.980;-63.602;2023-06-04T06:30:09;9.10;99.90
59961;DHT22;55902;-37.980;-63.602;2023-06-04T06:32:36;9.10;99.90
59961;DHT22;55902;-37.980;-63.602;2023-06-04T06:35:04;9.10;99.90
59961;DHT22;55902;-37.980;-63.602;2023-06-04T06:37:31;9.00;99.90
59961;DHT22;55902;-37.980;-63.602;2023-06-04T06:39:58;9.00;99.90
59961;DHT22;55902;-37.980;-63.602;2023-06-04T06:42:25;8.90;99.90
59961;DHT22;55902;-37.980;-63.602;2023-06-04T06:44:52;8.80;99.90
59961;DHT22;55902;-37.980;-63.602;2023-06-04T06:47:19;8.70;99.90
59961;DHT22;55902;-37.980;-63.602;2023-06-04T06:49:46;8.70;99.90
59961;DHT22;55902;-37.980;-63.602;2023-06-04T06:52:13;8.60;99.90
59961;DHT22;55902;-37.980;-63.602;2023-06-04T06:54:40;8.50;99.90
59961;DHT22;55902;-37.980;-63.602;2023-06-04T06:57:07;8.40;99.90
59961;DHT22;55902;-37.980;-63.602;2023-06-04T06:59:35;8.30;99.90
59961;DHT22;55902;-37.980;-63.602;2023-06-04T07:02:03;8.30;99.90
59961;DHT22;55902;-37.980;-63.602;2023-06-04T07:04:30;8.20;99.90
59961;DHT22;55902;-37.980;-63.602;2023-06-04T07:06:57;8.10;99.90
59961;DHT22;55902;-37.980;-63.602;2023-06-04T07:09:24;8.00;99.90
59961;DHT22;55902;-37.980;-63.602;2023-06-04T07:11:51;7.90;99.90
59961;DHT22;55902;-37.980;-63.602;2023-06-04T07:14:21;7.80;99.90
59961;DHT22;55902;-37.980;-63.602;2023-06-04T07:16:48;7.80;99.90
59961;DHT22;55902;-37.980;-63.602;2023-06-04T07:19:15;7.70;99.90
59961;DHT22;55902;-37.980;-63.602;2023-06-04T07:21:42;7.60;99.90
59961;DHT22;55902;-37.980;-63.602;2023-06-04T07:24:09;7.50;99.90
59961;DHT22;55902;-37.980;-63.602;2023-06-04T07:26:36;7.50;99.90
59961;DHT22;55902;-37.980;-63.602;2023-06-04T07:29:03;7.50;99.90
59961;DHT22;55902;-37.980;-63.602;2023-06-04T07:31:30;7.40;99.90
59961;DHT22;55902;-37.980;-63.602;2023-06-04T07:33:57;7.40;99.90
59961;DHT22;55902;-37.980;-63.602;2023-06-04T07:36:24;7.40;99.90
59961;DHT22;55902;-37.980;-63.602;2023-06-04T07:38:51;7.50;99.90
59961;DHT22;55902;-37.980;-63.602;2023-06-04T07:41:18;7.50;99.90
59961;DHT22;55902;-37.980;-63.602;2023-06-04T07:43:45;7.60;99.90
59961;DHT22;55902;-37.980;-63.602;2023-06-04T07:46:12;7.60;99.90
59961;DHT22;55902;-37.980;-63.602;2023-06-04T07:48:39;7.60;99.90
59961;DHT22;55902;-37.980;-63.602;2023-06-04T07:51:06;7.70;99.90
59961;DHT22;55902;-37.980;-63.602;2023-06-04T07:53:33;7.70;99.90
59961;DHT22;55902;-37.980;-63.602;2023-06-04T07:56:02;7.70;99.90
59961;DHT22;55902;-37.980;-63.602;2023-06-04T07:58:29;7.70;99.90
59961;DHT22;55902;-37.980;-63.602;2023-06-04T08:00:56;7.80;99.90
59961;DHT22;55902;-37.980;-63.602;2023-06-04T08:03:23;7.80;99.90
59961;DHT22;55902;-37.980;-63.602;2023-06-04T08:15:57;8.00;99.90
59961;DHT22;55902;-37.980;-63.602;2023-06-04T08:18:24;8.00;99.90
59961;DHT22;55902;-37.980;-63.602;2023-06-04T08:20:51;8.00;99.90
59961;DHT22;55902;-37.980;-63.602;2023-06-04T08:23:18;8.00;99.90
59961;DHT22;55902;-37.980;-63.602;2023-06-04T08:25:48;8.00;99.90
59961;DHT22;55902;-37.980;-63.602;2023-06-04T08:28:15;8.00;99.90
59961;DHT22;55902;-37.980;-63.602;2023-06-04T08:30:43;8.00;99.90
59961;DHT22;55902;-37.980;-63.602;2023-06-04T08:33:10;8.00;99.90
59961;DHT22;55902;-37.980;-63.602;2023-06-04T08:35:37;8.00;99.90
59961;DHT22;55902;-37.980;-63.602;2023-06-04T08:38:04;7.90;99.90
59961;DHT22;55902;-37.980;-63.602;2023-06-04T08:40:31;7.90;99.90
59961;DHT22;55902;-37.980;-63.602;2023-06-04T08:42:59;7.90;99.90
59961;DHT22;55902;-37.980;-63.602;2023-06-04T08:45:27;7.80;99.90
59961;DHT22;55902;-37.980;-63.602;2023-06-04T08:47:54;7.80;99.90
59961;DHT22;55902;-37.980;-63.602;2023-06-04T08:50:23;7.80;99.90
59961;DHT22;55902;-37.980;-63.602;2023-06-04T08:52:54;7.70;99.90
59961;DHT22;55902;-37.980;-63.602;2023-06-04T08:55:22;7.70;99.90
59961;DHT22;55902;-37.980;-63.602;2023-06-04T08:57:50;7.60;99.90
59961;DHT22;55902;-37.980;-63.602;2023-06-04T09:00:18;7.50;99.90
59961;DHT22;55902;-37.980;-63.602;2023-06-04T09:02:49;7.50;99.90
59961;DHT22;55902;-37.980;-63.602;2023-06-04T09:05:21;7.40;99.90
59961;DHT22;55902;-37.980;-63.602;2023-06-04T09:07:52;7.30;99.90
59961;DHT22;55902;-37.980;-63.602;2023-06-04T09:10:24;7.30;99.90
59961;DHT22;55902;-37.980;-63.602;2023-06-04T09:12:53;7.20;99.90
59961;DHT22;55902;-37.980;-63.602;2023-06-04T09:15:20;7.20;99.90
59961;DHT22;55902;-37.980;-63.602;2023-06-04T09:17:47;7.10;99.90
59961;DHT22;55902;-37.980;-63.602;2023-06-04T09:20:21;7.00;99.90
59961;DHT22;55902;-37.980;-63.602;2023-06-04T09:22:48;7.00;99.90
59961;DHT22;55902;-37.980;-63.602;2023-06-04T09:25:26;6.90;99.90
59961;DHT22;55902;-37.980;-63.602;2023-06-04T09:27:54;6.80;99.90
59961;DHT22;55902;-37.980;-63.602;2023-06-04T09:30:24;6.70;99.90
59961;DHT22;55902;-37.980;-63.602;2023-06-04T09:32:52;6.60;99.90
59961;DHT22;55902;-37.980;-63.602;2023-06-04T09:35:19;6.60;99.90
59961;DHT22;55902;-37.980;-63.602;2023-06-04T09:47:52;6.40;99.90
59961;DHT22;55902;-37.980;-63.602;2023-06-04T09:50:25;6.40;99.90
59961;DHT22;55902;-37.980;-63.602;2023-06-04T09:52:54;6.40;99.90
59961;DHT22;55902;-37.980;-63.602;2023-06-04T09:55:21;6.30;99.90
59961;DHT22;55902;-37.980;-63.602;2023-06-04T09:57:52;6.30;99.90
59961;DHT22;55902;-37.980;-63.602;2023-06-04T10:00:21;6.30;99.90
59961;DHT22;55902;-37.980;-63.602;2023-06-04T10:02:50;6.30;99.90
59961;DHT22;55902;-37.980;-63.602;2023-06-04T10:05:18;6.30;99.90
59961;DHT22;55902;-37.980;-63.602;2023-06-04T10:07:51;6.30;99.90
59961;DHT22;55902;-37.980;-63.602;2023-06-04T10:10:20;6.30;99.90
59961;DHT22;55902;-37.980;-63.602;2023-06-04T10:13:00;6.30;99.90
59961;DHT22;55902;-37.980;-63.602;2023-06-04T10:15:29;6.30;99.90
59961;DHT22;55902;-37.980;-63.602;2023-06-04T10:18:02;6.30;99.90
59961;DHT22;55902;-37.980;-63.602;2023-06-04T10:20:31;6.30;99.90
59961;DHT22;55902;-37.980;-63.602;2023-06-04T10:22:59;6.30;99.90
59961;DHT22;55902;-37.980;-63.602;2023-06-04T10:25:27;6.30;99.90
59961;DHT22;55902;-37.980;-63.602;2023-06-04T10:27:55;6.30;99.90
59961;DHT22;55902;-37.980;-63.602;2023-06-04T10:30:22;6.30;99.90
59961;DHT22;55902;-37.980;-63.602;2023-06-04T10:32:50;6.30;99.90
59961;DHT22;55902;-37.980;-63.602;2023-06-04T10:35:17;6.20;99.90
59961;DHT22;55902;-37.980;-63.602;2023-06-04T10:38:05;6.20;99.90
59961;DHT22;55902;-37.980;-63.602;2023-06-04T10:40:33;6.20;99.90
59961;DHT22;55902;-37.980;-63.602;2023-06-04T10:43:07;6.20;99.90
59961;DHT22;55902;-37.980;-63.602;2023-06-04T10:45:35;6.20;99.90
59961;DHT22;55902;-37.980;-63.602;2023-06-04T10:48:03;6.20;99.90
59961;DHT22;55902;-37.980;-63.602;2023-06-04T10:50:32;6.20;99.90
59961;DHT22;55902;-37.980;-63.602;2023-06-04T10:53:04;6.20;99.90
59961;DHT22;55902;-37.980;-63.602;2023-06-04T10:55:32;6.20;99.90
59961;DHT22;55902;-37.980;-63.602;2023-06-04T10:58:01;6.20;99.90
59961;DHT22;55902;-37.980;-63.602;2023-06-04T11:00:36;6.20;99.90
59961;DHT22;55902;-37.980;-63.602;2023-06-04T11:03:05;6.20;99.90
59961;DHT22;55902;-37.980;-63.602;2023-06-04T11:05:37;6.20;99.90
59961;DHT22;55902;-37.980;-63.602;2023-06-04T11:08:05;6.20;99.90
59961;DHT22;55902;-37.980;-63.602;2023-06-04T11:10:37;6.20;99.90
59961;DHT22;55902;-37.980;-63.602;2023-06-04T11:13:05;6.20;99.90
59961;DHT22;55902;-37.980;-63.602;2023-06-04T11:15:42;6.20;99.90
59961;DHT22;55902;-37.980;-63.602;2023-06-04T11:18:16;6.20;99.90
59961;DHT22;55902;-37.980;-63.602;2023-06-04T11:30:59;6.10;99.90
59961;DHT22;55902;-37.980;-63.602;2023-06-04T11:33:51;6.10;99.90
59961;DHT22;55902;-37.980;-63.602;2023-06-04T11:36:26;6.00;99.90
59961;DHT22;55902;-37.980;-63.602;2023-06-04T11:39:00;6.00;99.90
59961;DHT22;55902;-37.980;-63.602;2023-06-04T11:41:29;6.00;99.90
59961;DHT22;55902;-37.980;-63.602;2023-06-04T11:44:01;6.00;99.90
59961;DHT22;55902;-37.980;-63.602;2023-06-04T11:46:29;6.00;99.90
59961;DHT22;55902;-37.980;-63.602;2023-06-04T11:48:56;6.00;99.90
59961;DHT22;55902;-37.980;-63.602;2023-06-04T11:51:23;6.00;99.90
59961;DHT22;55902;-37.980;-63.602;2023-06-04T11:53:51;6.00;99.90
59961;DHT22;55902;-37.980;-63.602;2023-06-04T11:56:18;6.00;99.90
59961;DHT22;55902;-37.980;-63.602;2023-06-04T11:58:45;6.10;99.90
59961;DHT22;55902;-37.980;-63.602;2023-06-04T12:01:13;6.10;99.90
59961;DHT22;55902;-37.980;-63.602;2023-06-04T12:03:41;6.10;99.90
59961;DHT22;55902;-37.980;-63.602;2023-06-04T12:06:19;6.00;99.90
59961;DHT22;55902;-37.980;-63.602;2023-06-04T12:08:54;6.10;99.90
59961;DHT22;55902;-37.980;-63.602;2023-06-04T12:14:04;6.10;99.90
59961;DHT22;55902;-37.980;-63.602;2023-06-04T12:16:31;6.10;99.90
59961;DHT22;55902;-37.980;-63.602;2023-06-04T12:19:25;6.10;99.90
59961;DHT22;55902;-37.980;-63.602;2023-06-04T12:22:19;6.20;99.90
59961;DHT22;55902;-37.980;-63.602;2023-06-04T12:24:55;6.20;99.90
59961;DHT22;55902;-37.980;-63.602;2023-06-04T12:27:26;6.30;99.90
59961;DHT22;55902;-37.980;-63.602;2023-06-04T12:30:06;6.30;99.90
59961;DHT22;55902;-37.980;-63.602;2023-06-04T12:32:36;6.30;99.90
59961;DHT22;55902;-37.980;-63.602;2023-06-04T12:35:04;6.30;99.90
59961;DHT22;55902;-37.980;-63.602;2023-06-04T12:37:31;6.40;99.90
59961;DHT22;55902;-37.980;-63.602;2023-06-04T12:39:58;6.40;99.90
59961;DHT22;55902;-37.980;-63.602;2023-06-04T12:42:25;6.50;99.90
59961;DHT22;55902;-37.980;-63.602;2023-06-04T12:44:54;6.50;99.90
59961;DHT22;55902;-37.980;-63.602;2023-06-04T12:47:21;6.60;99.90
59961;DHT22;55902;-37.980;-63.602;2023-06-04T12:49:48;6.70;99.90
59961;DHT22;55902;-37.980;-63.602;2023-06-04T12:52:17;6.80;99.90
59961;DHT22;55902;-37.980;-63.602;2023-06-04T12:54:44;6.90;99.90
59961;DHT22;55902;-37.980;-63.602;2023-06-04T12:57:11;7.00;99.90
59961;DHT22;55902;-37.980;-63.602;2023-06-04T12:59:38;7.10;99.90
59961;DHT22;55902;-37.980;-63.602;2023-06-04T13:02:06;7.30;99.90
59961;DHT22;55902;-37.980;-63.602;2023-06-04T13:04:33;7.70;99.90
59961;DHT22;55902;-37.980;-63.602;2023-06-04T13:07:00;8.30;99.90
59961;DHT22;55902;-37.980;-63.602;2023-06-04T13:09:27;9.00;99.90
59961;DHT22;55902;-37.980;-63.602;2023-06-04T13:11:58;9.80;99.90
59961;DHT22;55902;-37.980;-63.602;2023-06-04T13:14:25;10.40;99.20
59961;DHT22;55902;-37.980;-63.602;2023-06-04T13:16:52;11.10;98.50
59961;DHT22;55902;-37.980;-63.602;2023-06-04T13:19:19;11.60;97.20
59961;DHT22;55902;-37.980;-63.602;2023-06-04T13:31:52;13.30;95.00
59961;DHT22;55902;-37.980;-63.602;2023-06-04T13:34:20;13.80;94.70
59961;DHT22;55902;-37.980;-63.602;2023-06-04T13:36:47;14.20;93.80
59961;DHT22;55902;-37.980;-63.602;2023-06-04T13:39:14;14.60;92.80
59961;DHT22;55902;-37.980;-63.602;2023-06-04T13:41:44;15.00;92.80
59961;DHT22;55902;-37.980;-63.602;2023-06-04T13:44:11;15.40;91.80
59961;DHT22;55902;-37.980;-63.602;2023-06-04T13:46:40;15.60;91.60
59961;DHT22;55902;-37.980;-63.602;2023-06-04T13:49:07;15.80;91.10
59961;DHT22;55902;-37.980;-63.602;2023-06-04T13:51:34;15.90;87.90
59961;DHT22;55902;-37.980;-63.602;2023-06-04T13:54:02;16.10;90.60
59961;DHT22;55902;-37.980;-63.602;2023-06-04T13:56:29;16.40;89.70
59961;DHT22;55902;-37.980;-63.602;2023-06-04T13:58:56;16.70;90.30
59961;DHT22;55902;-37.980;-63.602;2023-06-04T14:01:23;16.90;86.90
59961;DHT22;55902;-37.980;-63.602;2023-06-04T14:13:56;17.60;76.80
59961;DHT22;55902;-37.980;-63.602;2023-06-04T14:16:23;17.80;79.40
59961;DHT22;55902;-37.980;-63.602;2023-06-04T14:18:49;18.00;80.20
59961;DHT22;55902;-37.980;-63.602;2023-06-04T14:21:16;18.10;79.60
59961;DHT22;55902;-37.980;-63.602;2023-06-04T14:23:43;18.30;79.40
59961;DHT22;55902;-37.980;-63.602;2023-06-04T14:26:11;18.60;77.50
59961;DHT22;55902;-37.980;-63.602;2023-06-04T14:28:38;18.80;81.30
59961;DHT22;55902;-37.980;-63.602;2023-06-04T14:31:05;19.10;73.80
59961;DHT22;55902;-37.980;-63.602;2023-06-04T14:33:32;19.20;75.30
59961;DHT22;55902;-37.980;-63.602;2023-06-04T14:36:01;19.40;75.70
59961;DHT22;55902;-37.980;-63.602;2023-06-04T14:38:28;19.60;78.80
59961;DHT22;55902;-37.980;-63.602;2023-06-04T14:40:56;19.90;71.80
59961;DHT22;55902;-37.980;-63.602;2023-06-04T14:43:23;20.00;75.80
59961;DHT22;55902;-37.980;-63.602;2023-06-04T14:45:50;20.20;68.80
59961;DHT22;55902;-37.980;-63.602;2023-06-04T14:48:17;20.40;73.80
59961;DHT22;55902;-37.980;-63.602;2023-06-04T14:50:44;20.70;71.90
59961;DHT22;55902;-37.980;-63.602;2023-06-04T14:53:13;20.90;69.80
59961;DHT22;55902;-37.980;-63.602;2023-06-04T14:55:40;20.90;64.00
59961;DHT22;55902;-37.980;-63.602;2023-06-04T14:58:07;21.00;70.60
59961;DHT22;55902;-37.980;-63.602;2023-06-04T15:00:34;21.20;66.90
59961;DHT22;55902;-37.980;-63.602;2023-06-04T15:03:01;21.20;62.00
59961;DHT22;55902;-37.980;-63.602;2023-06-04T15:05:28;21.20;64.20
59961;DHT22;55902;-37.980;-63.602;2023-06-04T15:07:55;21.20;63.20
59961;DHT22;55902;-37.980;-63.602;2023-06-04T15:10:23;21.40;66.00
59961;DHT22;55902;-37.980;-63.602;2023-06-04T15:23:01;21.90;57.40
59961;DHT22;55902;-37.980;-63.602;2023-06-04T15:25:28;22.00;58.70
59961;DHT22;55902;-37.980;-63.602;2023-06-04T15:27:55;22.10;58.60
59961;DHT22;55902;-37.980;-63.602;2023-06-04T15:30:22;22.30;57.50
59961;DHT22;55902;-37.980;-63.602;2023-06-04T15:32:49;22.50;58.50
59961;DHT22;55902;-37.980;-63.602;2023-06-04T15:35:16;22.70;58.00
59961;DHT22;55902;-37.980;-63.602;2023-06-04T15:37:43;23.00;60.10
59961;DHT22;55902;-37.980;-63.602;2023-06-04T15:40:10;23.40;57.10
59961;DHT22;55902;-37.980;-63.602;2023-06-04T15:42:37;23.50;55.30
59961;DHT22;55902;-37.980;-63.602;2023-06-04T15:45:05;23.60;52.50
59961;DHT22;55902;-37.980;-63.602;2023-06-04T15:47:32;23.80;56.20
59961;DHT22;55902;-37.980;-63.602;2023-06-04T15:49:59;24.00;54.30
59961;DHT22;55902;-37.980;-63.602;2023-06-04T15:52:26;24.10;55.90
59961;DHT22;55902;-37.980;-63.602;2023-06-04T15:54:53;24.30;55.60
59961;DHT22;55902;-37.980;-63.602;2023-06-04T15:57:20;24.40;57.50
59961;DHT22;55902;-37.980;-63.602;2023-06-04T15:59:47;24.70;53.10
59961;DHT22;55902;-37.980;-63.602;2023-06-04T16:02:14;24.70;54.10
59961;DHT22;55902;-37.980;-63.602;2023-06-04T16:04:41;25.00;51.60
59961;DHT22;55902;-37.980;-63.602;2023-06-04T16:07:08;25.30;56.50
59961;DHT22;55902;-37.980;-63.602;2023-06-04T16:09:35;25.60;55.00
59961;DHT22;55902;-37.980;-63.602;2023-06-04T16:12:02;25.70;51.10
59961;DHT22;55902;-37.980;-63.602;2023-06-04T16:14:31;25.90;56.30
59961;DHT22;55902;-37.980;-63.602;2023-06-04T16:16:58;25.70;43.80
59961;DHT22;55902;-37.980;-63.602;2023-06-04T16:19:25;25.50;49.10
59961;DHT22;55902;-37.980;-63.602;2023-06-04T16:21:52;25.60;53.90
59961;DHT22;55902;-37.980;-63.602;2023-06-04T16:24:19;25.70;48.10
59961;DHT22;55902;-37.980;-63.602;2023-06-04T16:26:46;25.70;47.40
59961;DHT22;55902;-37.980;-63.602;2023-06-04T16:29:13;25.80;48.40
59961;DHT22;55902;-37.980;-63.602;2023-06-04T16:31:40;25.80;50.50
59961;DHT22;55902;-37.980;-63.602;2023-06-04T16:34:10;26.00;48.80
59961;DHT22;55902;-37.980;-63.602;2023-06-04T16:36:37;26.10;48.20
59961;DHT22;55902;-37.980;-63.602;2023-06-04T16:39:04;26.30;51.20
59961;DHT22;55902;-37.980;-63.602;2023-06-04T16:41:31;26.40;44.90
59961;DHT22;55902;-37.980;-63.602;2023-06-04T16:43:59;26.30;46.70